createdAt,value
2023-01-27T00:03:25.062Z,100792.94
2023-01-27T00:08:28.213Z,100790.69
2023-01-27T00:13:31.891Z,100792.97
2023-01-27T00:18:33.233Z,100786.31
2023-01-27T00:23:52.895Z,100771.81
2023-01-27T00:28:54.250Z,100773.47
2023-01-27T00:34:01.749Z,100768.31
2023-01-27T00:39:04.295Z,100775.78
2023-01-27T00:44:06.019Z,100767.69
2023-01-27T00:49:07.702Z,100773.84
2023-01-27T00:54:09.154Z,100767.44
2023-01-27T00:59:10.520Z,100769.63
2023-01-27T01:04:11.889Z,100771.81
2023-01-27T01:09:13.238Z,100780.72
2023-01-27T01:14:14.697Z,100790.53
2023-01-27T01:19:16.002Z,100784.84
2023-01-27T01:24:17.741Z,100792.59
2023-01-27T01:29:19.145Z,100797.63
2023-01-27T01:34:20.470Z,100800.44
2023-01-27T01:39:21.786Z,100796.41
2023-01-27T01:44:26.376Z,100790.75
2023-01-27T01:49:39.223Z,100784.22
2023-01-27T01:54:48.454Z,100785.66
2023-01-27T02:00:01.744Z,100779.50
2023-01-27T02:05:11.262Z,100778.78
2023-01-27T02:10:13.215Z,100784.22
2023-01-27T02:15:15.282Z,100786.88
2023-01-27T02:20:43.587Z,100783.94
2023-01-27T02:25:53.066Z,100779.72
2023-01-27T02:30:54.513Z,100778.16
2023-01-27T02:36:03.118Z,100781.66
2023-01-27T02:41:40.489Z,100779.72
2023-01-27T02:46:41.828Z,100785.31
2023-01-27T02:51:43.331Z,100787.81
2023-01-27T02:56:44.651Z,100797.13
2023-01-27T03:01:46.062Z,100794.00
2023-01-27T03:06:47.450Z,100794.84
2023-01-27T03:12:07.475Z,100797.41
2023-01-27T03:17:27.260Z,100800.91
2023-01-27T03:22:28.662Z,100804.66
2023-01-27T03:27:30.032Z,100809.97
2023-01-27T03:32:32.557Z,100806.59
2023-01-27T03:37:52.321Z,100808.75
2023-01-27T03:43:12.634Z,100804.78
2023-01-27T03:48:14.163Z,100807.66
2023-01-27T03:53:15.486Z,100810.44
2023-01-27T03:58:28.339Z,100811.28
2023-01-27T04:03:51.141Z,100814.09
2023-01-27T04:08:52.611Z,100812.88
2023-01-27T04:13:54.071Z,100819.88
2023-01-27T04:18:56.836Z,100823.97
2023-01-27T04:23:58.457Z,100818.63
2023-01-27T04:29:00.976Z,100814.31
2023-01-27T04:34:02.337Z,100810.81
2023-01-27T04:39:03.809Z,100815.41
2023-01-27T04:44:06.059Z,100812.47
2023-01-27T04:49:08.061Z,100829.28
2023-01-27T04:54:09.428Z,100818.53
2023-01-27T04:59:12.718Z,100812.59
2023-01-27T05:04:14.077Z,100824.84
2023-01-27T05:09:15.446Z,100831.84
2023-01-27T05:14:16.847Z,100841.53
2023-01-27T05:19:18.220Z,100831.94
2023-01-27T05:24:19.551Z,100835.09
2023-01-27T05:29:21.026Z,100828.72
2023-01-27T05:34:22.736Z,100838.59
2023-01-27T05:39:24.088Z,100838.03
2023-01-27T05:44:25.437Z,100845.63
2023-01-27T05:49:26.795Z,100841.28
2023-01-27T05:54:28.252Z,100846.75
2023-01-27T05:59:29.572Z,100849.03
2023-01-27T06:04:30.969Z,100851.09
2023-01-27T06:09:32.306Z,100858.97
2023-01-27T06:14:33.660Z,100861.50
2023-01-27T06:19:34.967Z,100865.59
2023-01-27T06:24:36.335Z,100864.53
2023-01-27T06:29:37.727Z,100872.97
2023-01-27T06:34:39.691Z,100873.84
2023-01-27T06:39:41.054Z,100872.63
2023-01-27T06:44:42.377Z,100875.88
2023-01-27T06:49:43.744Z,100879.13
2023-01-27T06:54:45.139Z,100883.97
2023-01-27T06:59:46.514Z,100886.38
2023-01-27T07:04:48.275Z,100885.91
2023-01-27T07:09:52.633Z,100885.50
2023-01-27T07:14:54.414Z,100894.81
2023-01-27T07:19:55.759Z,100901.09
2023-01-27T07:24:57.312Z,100909.44
2023-01-27T07:29:58.634Z,100909.03
2023-01-27T07:34:59.951Z,100916.75
2023-01-27T07:40:01.291Z,100915.22
2023-01-27T07:45:02.730Z,100915.81
2023-01-27T07:50:04.362Z,100920.50
2023-01-27T07:55:06.263Z,100908.03
2023-01-27T08:00:08.086Z,100921.63
2023-01-27T08:05:09.395Z,100927.50
2023-01-27T08:10:11.400Z,100929.09
2023-01-27T08:15:14.042Z,100936.50
2023-01-27T08:20:15.757Z,100935.47
2023-01-27T08:25:17.250Z,100943.59
2023-01-27T08:30:19.678Z,100948.19
2023-01-27T08:35:21.128Z,100950.13
2023-01-27T08:40:22.549Z,100955.47
2023-01-27T08:45:23.964Z,100961.25
2023-01-27T08:50:25.431Z,100976.47
2023-01-27T08:55:31.244Z,100977.91
2023-01-27T09:00:32.582Z,100975.00
2023-01-27T09:05:35.714Z,100983.84
2023-01-27T09:10:39.523Z,101000.06
2023-01-27T09:15:40.939Z,101007.28
2023-01-27T09:20:42.277Z,101008.13
2023-01-27T09:25:43.648Z,101012.44
2023-01-27T09:30:46.290Z,101010.03
2023-01-27T09:35:57.922Z,101010.16
2023-01-27T09:41:36.559Z,101008.28
2023-01-27T09:47:13.408Z,101004.38
2023-01-27T09:52:52.342Z,101013.34
2023-01-27T09:58:10.044Z,101006.03
2023-01-27T10:03:37.004Z,101002.06
2023-01-27T10:08:59.628Z,101002.44
2023-01-27T10:14:26.185Z,100994.81
2023-01-27T10:19:48.728Z,100995.53
2023-01-27T10:25:28.767Z,100998.38
2023-01-27T10:30:34.978Z,100984.09
2023-01-27T10:35:58.002Z,100988.25
2023-01-27T10:41:27.146Z,100989.13
2023-01-27T10:46:56.389Z,100986.94
2023-01-27T10:52:05.565Z,100992.28
2023-01-27T10:57:17.735Z,100991.19
2023-01-27T11:02:32.094Z,100995.28
2023-01-27T11:07:46.052Z,100993.22
2023-01-27T11:12:51.206Z,100978.03
2023-01-27T11:18:10.774Z,100984.53
2023-01-27T11:23:21.082Z,100986.09
2023-01-27T11:28:42.579Z,100984.41
2023-01-27T11:33:46.701Z,100983.25
2023-01-27T11:38:48.127Z,100981.88
2023-01-27T11:43:50.033Z,100985.84
2023-01-27T11:48:56.735Z,100981.19
2023-01-27T11:54:15.563Z,100966.84
2023-01-27T11:59:32.648Z,100961.16
2023-01-27T12:05:01.373Z,100976.69
2023-01-27T12:10:03.717Z,100963.16
2023-01-27T12:15:05.474Z,100961.59
2023-01-27T12:20:32.115Z,100958.25
2023-01-27T12:25:46.025Z,100945.28
2023-01-27T12:30:48.056Z,100946.13
2023-01-27T12:35:50.507Z,100942.59
2023-01-27T12:41:04.421Z,100939.50
2023-01-27T12:46:19.918Z,100935.13
2023-01-27T12:51:24.021Z,100930.94
2023-01-27T12:56:25.749Z,100938.56
2023-01-27T13:01:33.892Z,100945.75
2023-01-27T13:06:43.312Z,100952.03
2023-01-27T13:11:45.349Z,100948.84
2023-01-27T13:16:55.042Z,100951.94
2023-01-27T13:21:56.984Z,100957.28
2023-01-27T13:27:00.649Z,100961.34
2023-01-27T13:32:23.304Z,100964.03
2023-01-27T13:37:48.074Z,100966.28
2023-01-27T13:43:10.530Z,100970.41
2023-01-27T13:48:26.158Z,100968.69
2023-01-27T13:53:27.611Z,100971.06
2023-01-27T13:59:19.829Z,100978.00
2023-01-27T14:04:55.889Z,100983.06
2023-01-27T14:10:23.790Z,100988.25
2023-01-27T14:15:51.910Z,100981.22
2023-01-27T14:21:14.115Z,100994.13
2023-01-27T14:26:48.265Z,100992.34
2023-01-27T14:32:04.579Z,100991.63
2023-01-27T14:37:22.240Z,101003.75
2023-01-27T14:42:41.244Z,101002.66
2023-01-27T14:48:10.962Z,101005.72
2023-01-27T14:53:34.587Z,101009.53
2023-01-27T14:58:51.005Z,101017.53
2023-01-27T15:04:25.431Z,101011.47
2023-01-27T15:09:39.683Z,101020.50
2023-01-27T15:15:03.189Z,101021.06
2023-01-27T15:20:29.039Z,101036.00
2023-01-27T15:25:44.373Z,101026.56
2023-01-27T15:31:09.904Z,101040.06
2023-01-27T15:36:32.296Z,101039.59
2023-01-27T15:41:33.591Z,101044.38
2023-01-27T15:46:37.371Z,101041.56
2023-01-27T15:51:38.749Z,101035.94
2023-01-27T15:56:47.686Z,101042.53
2023-01-27T16:01:58.883Z,101048.72
2023-01-27T16:07:02.921Z,101048.88
2023-01-27T16:12:20.039Z,101051.25
2023-01-27T16:17:25.677Z,101049.44
2023-01-27T16:22:30.692Z,101055.91
2023-01-27T16:27:51.507Z,101064.16
2023-01-27T16:33:07.401Z,101060.06
2023-01-27T16:38:24.324Z,101056.94
2023-01-27T16:43:31.805Z,101068.03
2023-01-27T16:48:45.080Z,101065.78
2023-01-27T16:53:48.788Z,101076.72
2023-01-27T16:58:51.790Z,101083.31
2023-01-27T17:03:56.906Z,101080.63
2023-01-27T17:08:59.287Z,101084.31
2023-01-27T17:14:02.640Z,101086.09
2023-01-27T17:19:21.190Z,101084.56
2023-01-27T17:24:27.132Z,101089.78
2023-01-27T17:30:03.716Z,101093.94
2023-01-27T17:35:08.581Z,101102.47
2023-01-27T17:40:18.286Z,101113.16
2023-01-27T17:45:23.332Z,101115.00
2023-01-27T17:50:31.460Z,101119.88
2023-01-27T17:55:32.889Z,101121.81
2023-01-27T18:00:42.463Z,101124.25
2023-01-27T18:05:46.236Z,101126.78
2023-01-27T18:10:47.661Z,101132.50
2023-01-27T18:15:50.101Z,101130.34
2023-01-27T18:20:57.367Z,101135.63
2023-01-27T18:26:12.816Z,101149.09
2023-01-27T18:31:22.331Z,101141.34
2023-01-27T18:36:28.123Z,101150.31
2023-01-27T18:41:32.722Z,101152.78
2023-01-27T18:46:34.086Z,101146.34
2023-01-27T18:51:35.419Z,101153.78
2023-01-27T18:56:36.756Z,101152.56
2023-01-27T19:01:38.139Z,101157.19
2023-01-27T19:06:39.530Z,101160.81
2023-01-27T19:11:40.937Z,101166.88
2023-01-27T19:16:42.445Z,101163.25
2023-01-27T19:21:43.782Z,101167.03
2023-01-27T19:26:45.622Z,101168.97
2023-01-27T19:31:47.002Z,101174.63
2023-01-27T19:36:48.411Z,101177.69
2023-01-27T19:41:49.787Z,101189.97
2023-01-27T19:46:51.219Z,101194.72
2023-01-27T19:51:53.491Z,101185.00
2023-01-27T19:56:54.812Z,101183.94
2023-01-27T20:01:56.930Z,101188.66
2023-01-27T20:06:58.450Z,101194.94
2023-01-27T20:12:00.813Z,101193.66
2023-01-27T20:17:02.416Z,101195.59
2023-01-27T20:22:03.776Z,101199.94
2023-01-27T20:27:05.097Z,101197.63
2023-01-27T20:32:09.346Z,101214.47
2023-01-27T20:37:11.193Z,101206.47
2023-01-27T20:42:12.598Z,101222.13
2023-01-27T20:47:15.212Z,101222.84
2023-01-27T20:52:16.576Z,101227.09
2023-01-27T20:57:20.681Z,101223.69
2023-01-27T21:02:22.030Z,101235.09
2023-01-27T21:07:24.321Z,101228.41
2023-01-27T21:12:27.217Z,101234.84
2023-01-27T21:17:28.561Z,101247.19
2023-01-27T21:22:29.888Z,101242.38
2023-01-27T21:27:31.220Z,101244.66
2023-01-27T21:32:32.550Z,101247.72
2023-01-27T21:37:36.021Z,101252.06
2023-01-27T21:42:55.676Z,101257.38
2023-01-27T21:47:57.040Z,101250.38
2023-01-27T21:52:58.429Z,101248.53
2023-01-27T21:58:00.533Z,101248.66
2023-01-27T22:03:03.735Z,101254.59
2023-01-27T22:08:06.730Z,101252.06
2023-01-27T22:13:10.521Z,101265.50
2023-01-27T22:18:12.418Z,101258.50
2023-01-27T22:23:13.788Z,101257.03
2023-01-27T22:28:15.400Z,101260.31
2023-01-27T22:33:16.841Z,101256.44
2023-01-27T22:44:29.415Z,101248.66
2023-01-27T22:49:30.992Z,101257.25
2023-01-27T22:54:32.807Z,101254.25
2023-01-27T23:00:09.470Z,101246.63
2023-01-27T23:05:13.720Z,101243.06
2023-01-27T23:10:16.386Z,101235.81
2023-01-27T23:21:48.793Z,101243.34
2023-01-27T23:33:25.031Z,101242.09
2023-01-27T23:38:34.231Z,101248.28
2023-01-27T23:43:38.753Z,101236.38
2023-01-27T23:48:40.373Z,101233.94
2023-01-27T23:53:42.384Z,101232.00
2023-01-27T23:58:46.327Z,101228.47
